Time;durP1;ratioP1;P1;durP2;ratioP2;P2;SDS_P1;SDS_P2;PMS_P1;PMS_P2;Temp;Humidity;BMP_temperature;BMP_pressure;BME280_temperature;BME280_humidity;BME280_pressure;Samples;Min_cycle;Max_cycle;Signal;HPM_P1;HPM_P2
2022/10/29 00:01:32;;;;;;;10.60;5.15;;;;;;;16.69;71.94;102082.31;5094485;28;20421;-64
2022/10/29 00:04:00;;;;;;;13.00;6.55;;;;;;;16.69;71.87;102082.31;5092575;28;20044;-65
2022/10/29 00:06:28;;;;;;;11.30;5.43;;;;;;;16.68;71.96;102077.94;5089989;28;20052;-65
2022/10/29 00:08:55;;;;;;;12.82;6.20;;;;;;;16.67;71.96;102074.41;5099381;28;20388;-66
2022/10/29 00:11:23;;;;;;;14.20;5.60;;;;;;;16.66;72.07;102063.78;5096481;28;20143;-65
2022/10/29 00:13:55;;;;;;;9.82;5.13;;;;;;;16.65;71.96;102068.38;5088292;28;20385;-66
2022/10/29 00:16:24;;;;;;;10.88;5.38;;;;;;;16.64;72.12;102066.69;5087953;28;20451;-66
2022/10/29 00:18:54;;;;;;;13.23;6.72;;;;;;;16.64;71.94;102065.88;5094194;28;20048;-63
2022/10/29 00:21:23;;;;;;;13.52;6.25;;;;;;;16.63;72.00;102073.19;5092618;28;20056;-64
2022/10/29 00:23:51;;;;;;;13.55;5.82;;;;;;;16.62;72.16;102074.25;5095338;28;20079;-64
2022/10/29 00:26:21;;;;;;;16.27;5.25;;;;;;;16.62;72.18;102082.38;5096414;28;20063;-64
2022/10/29 00:28:52;;;;;;;11.60;6.07;;;;;;;16.61;72.04;102064.44;5093016;28;20052;-64
2022/10/29 00:31:23;;;;;;;12.75;6.78;;;;;;;16.60;72.05;102060.06;5089374;28;20040;-65
2022/10/29 00:33:51;;;;;;;16.48;6.18;;;;;;;16.59;72.13;102063.84;5091554;28;20152;-65
2022/10/29 00:36:22;;;;;;;12.77;6.00;;;;;;;16.57;72.13;102064.09;5083824;28;20063;-65
2022/10/29 00:38:50;;;;;;;8.57;5.18;;;;;;;16.57;72.04;102060.53;5090493;28;20040;-65
2022/10/29 00:41:20;;;;;;;13.40;6.80;;;;;;;16.57;72.02;102055.94;5084979;28;20498;-64
2022/10/29 00:43:49;;;;;;;12.77;6.75;;;;;;;16.57;72.08;102060.53;5091965;28;20044;-65
2022/10/29 00:46:25;;;;;;;14.15;6.28;;;;;;;16.56;72.17;102069.75;5086864;28;20055;-65
2022/10/29 00:48:56;;;;;;;16.58;5.32;;;;;;;16.54;72.04;102078.13;5093554;28;20055;-65
2022/10/29 00:51:27;;;;;;;9.63;5.72;;;;;;;16.54;72.13;102085.44;5090808;28;20063;-66
2022/10/29 00:53:59;;;;;;;16.73;5.57;;;;;;;16.54;72.12;102082.72;5100362;28;20052;-65
2022/10/29 00:56:29;;;;;;;15.38;6.45;;;;;;;16.53;71.99;102084.59;5094727;28;20048;-65
2022/10/29 00:58:57;;;;;;;9.63;5.70;;;;;;;16.52;72.01;102096.50;5098069;28;20060;-64
2022/10/29 01:01:25;;;;;;;13.10;5.88;;;;;;;16.52;72.06;102088.38;5095110;28;20074;-64
2022/10/29 01:03:54;;;;;;;11.65;6.18;;;;;;;16.52;71.98;102084.84;5095435;28;20059;-64
2022/10/29 01:06:25;;;;;;;15.13;6.82;;;;;;;16.52;72.08;102082.13;5093727;28;20044;-65
2022/10/29 01:08:53;;;;;;;10.98;6.38;;;;;;;16.51;71.95;102077.75;5098546;28;20047;-64
2022/10/29 01:11:34;;;;;;;11.23;7.28;;;;;;;16.50;71.92;102065.25;5097017;28;20062;-64
2022/10/29 01:14:12;;;;;;;15.98;6.60;;;;;;;16.50;71.92;102065.25;5089790;28;20062;-64
2022/10/29 01:16:47;;;;;;;12.40;6.07;;;;;;;16.47;72.01;102061.09;5092219;28;20059;-64
2022/10/29 01:19:28;;;;;;;11.15;5.53;;;;;;;16.48;71.89;102061.94;5098721;28;20499;-64
2022/10/29 01:22:03;;;;;;;11.73;6.07;;;;;;;16.46;71.97;102054.03;5097660;28;20044;-64
2022/10/29 01:24:52;;;;;;;12.73;6.13;;;;;;;16.44;72.00;102049.88;5094644;28;20044;-64
2022/10/29 01:27:54;;;;;;;12.98;6.95;;;;;;;16.45;71.91;102065.09;5094943;28;20045;-64
2022/10/29 01:30:38;;;;;;;12.38;6.25;;;;;;;16.43;72.25;102043.63;5093139;28;20080;-64
2022/10/29 01:33:14;;;;;;;12.90;6.00;;;;;;;16.43;71.86;102038.19;5090155;28;20512;-64
2022/10/29 01:35:49;;;;;;;17.80;7.60;;;;;;;16.42;71.84;102047.41;5089908;28;20049;-64
2022/10/29 01:38:27;;;;;;;13.23;5.57;;;;;;;16.41;71.87;102050.34;5094495;28;20112;-64
2022/10/29 01:41:00;;;;;;;10.98;6.35;;;;;;;16.40;71.88;102038.66;5103581;28;20047;-64
2022/10/29 01:43:35;;;;;;;14.73;5.63;;;;;;;16.39;71.80;102034.28;5097238;28;20060;-65
2022/10/29 01:46:08;;;;;;;15.20;6.40;;;;;;;16.38;71.80;102034.53;5095583;28;20052;-65
2022/10/29 01:48:42;;;;;;;13.32;6.18;;;;;;;16.37;71.85;102030.16;5089407;28;20056;-65
2022/10/29 01:51:18;;;;;;;14.35;6.05;;;;;;;16.35;71.61;102024.97;5088258;28;20052;-65
2022/10/29 01:53:46;;;;;;;15.88;6.13;;;;;;;16.35;71.81;102024.13;5092341;28;20424;-65
2022/10/29 01:56:14;;;;;;;11.68;6.32;;;;;;;16.34;71.88;102011.63;5096671;28;20378;-65
2022/10/29 01:58:45;;;;;;;14.30;6.35;;;;;;;16.33;71.82;102016.22;5088492;28;20052;-65
2022/10/29 02:01:27;;;;;;;14.82;6.13;;;;;;;16.31;71.81;102014.81;5089101;28;20063;-65
2022/10/29 02:04:06;;;;;;;13.43;6.38;;;;;;;16.30;71.81;102015.88;5098047;28;20075;-65
2022/10/29 02:06:45;;;;;;;13.23;6.20;;;;;;;16.30;71.68;102018.56;5091295;28;20044;-65
2022/10/29 02:09:20;;;;;;;11.73;6.82;;;;;;;16.28;71.82;102006.06;5087830;28;20566;-64
2022/10/29 02:11:54;;;;;;;12.80;6.15;;;;;;;16.24;71.81;102002.16;5098948;28;20060;-65
2022/10/29 02:14:29;;;;;;;15.05;6.32;;;;;;;16.27;71.57;102011.72;5091845;28;20044;-65
2022/10/29 02:16:58;;;;;;;15.95;5.40;;;;;;;16.24;71.84;101999.44;5092776;28;20063;-65
2022/10/29 02:19:31;;;;;;;15.63;6.60;;;;;;;16.24;71.68;102002.16;5097174;28;20048;-65
2022/10/29 02:21:59;;;;;;;13.38;5.38;;;;;;;16.23;71.80;101994.25;5104427;28;20062;-65
2022/10/29 02:24:26;;;;;;;12.98;5.97;;;;;;;16.22;71.68;101998.84;5088104;28;20047;-65
2022/10/29 02:26:54;;;;;;;12.65;6.22;;;;;;;16.21;71.75;101983.63;5092721;28;20122;-64
2022/10/29 02:29:22;;;;;;;12.90;6.40;;;;;;;16.19;71.69;101979.50;5094434;28;21437;-65
2022/10/29 02:31:50;;;;;;;14.05;6.32;;;;;;;16.18;71.83;101981.38;5087908;28;20059;-64
2022/10/29 02:34:17;;;;;;;11.70;6.28;;;;;;;16.17;71.86;101982.44;5092904;28;20052;-65
2022/10/29 02:36:46;;;;;;;15.13;6.78;;;;;;;16.18;71.73;101986.00;5085812;28;20044;-64
2022/10/29 02:39:14;;;;;;;12.57;6.13;;;;;;;16.16;71.75;101985.38;5098658;28;20602;-64
2022/10/29 02:41:42;;;;;;;15.02;6.00;;;;;;;16.17;71.87;101990.59;5095899;28;20383;-64
2022/10/29 02:44:09;;;;;;;14.52;6.15;;;;;;;16.16;71.72;101979.97;5091408;28;20494;-64
2022/10/29 02:46:38;;;;;;;15.05;5.78;;;;;;;16.08;71.75;101970.28;5091345;28;20047;-65
2022/10/29 02:49:06;;;;;;;14.32;6.00;;;;;;;16.14;71.76;101966.63;5098592;28;20045;-65
2022/10/29 02:51:34;;;;;;;13.82;5.50;;;;;;;16.07;71.81;101954.22;5096922;28;20075;-64
2022/10/29 02:54:03;;;;;;;14.25;5.57;;;;;;;16.13;71.71;101975.84;5087873;28;20052;-65
2022/10/29 02:56:30;;;;;;;19.05;6.50;;;;;;;16.12;71.71;101976.88;5094080;28;20048;-64
2022/10/29 02:58:58;;;;;;;12.70;6.43;;;;;;;16.11;71.71;101969.81;5095082;28;20048;-65
2022/10/29 03:01:26;;;;;;;14.32;6.00;;;;;;;16.11;71.72;101969.81;5096737;28;20048;-65
2022/10/29 03:03:54;;;;;;;13.85;5.78;;;;;;;16.11;71.72;101969.00;5093637;28;20046;-65
2022/10/29 03:06:22;;;;;;;12.90;6.45;;;;;;;16.10;71.65;101961.91;5085180;28;20047;-66
2022/10/29 03:08:49;;;;;;;12.88;6.40;;;;;;;16.09;71.77;101957.53;5088842;28;20062;-65
2022/10/29 03:11:18;;;;;;;13.18;6.47;;;;;;;16.09;71.62;101965.69;5095274;28;20044;-65
2022/10/29 03:13:46;;;;;;;14.80;5.63;;;;;;;16.08;71.86;101954.00;5090523;28;20056;-65
2022/10/29 03:16:14;;;;;;;11.43;5.85;;;;;;;16.08;71.70;101947.75;5088364;28;20044;-65
2022/10/29 03:18:42;;;;;;;11.00;5.90;;;;;;;16.05;71.81;101946.31;5093273;28;20044;-65
2022/10/29 03:21:09;;;;;;;12.98;6.22;;;;;;;16.06;71.73;101947.16;5092403;28;20066;-64
2022/10/29 03:23:37;;;;;;;13.15;6.47;;;;;;;16.05;71.87;101951.75;5092887;28;20044;-65
2022/10/29 03:26:05;;;;;;;10.82;5.70;;;;;;;16.04;71.84;101955.53;5089711;28;20040;-64
2022/10/29 03:28:34;;;;;;;12.00;5.40;;;;;;;16.04;71.85;101950.09;5085312;28;20052;-64
2022/10/29 03:31:02;;;;;;;13.20;5.32;;;;;;;16.04;71.67;101949.28;5091165;28;20052;-64
2022/10/29 03:33:30;;;;;;;14.18;5.82;;;;;;;16.02;71.79;101946.78;5095759;28;20041;-65
2022/10/29 03:35:58;;;;;;;12.38;6.03;;;;;;;16.02;71.81;101949.50;5084656;28;20052;-64
2022/10/29 03:38:27;;;;;;;16.77;6.93;;;;;;;16.01;71.75;101934.28;5087438;28;20130;-65
2022/10/29 03:40:55;;;;;;;14.65;7.03;;;;;;;16.00;71.86;101929.09;5090019;28;20056;-65
2022/10/29 03:43:23;;;;;;;11.57;5.88;;;;;;;15.99;71.79;101935.59;5091372;28;20322;-64
2022/10/29 03:45:53;;;;;;;16.45;6.90;;;;;;;15.99;71.76;101935.59;5084387;28;20040;-64
2022/10/29 03:48:21;;;;;;;11.18;6.25;;;;;;;15.98;71.67;101929.34;5087683;28;20048;-64
2022/10/29 03:50:55;;;;;;;11.65;5.65;;;;;;;15.97;71.75;101926.84;5096188;28;20521;-64
2022/10/29 03:53:23;;;;;;;10.85;5.35;;;;;;;15.95;71.78;101913.53;5093172;28;20044;-64
2022/10/29 03:55:51;;;;;;;9.73;5.63;;;;;;;15.95;71.78;101905.38;5089620;28;20059;-64
2022/10/29 03:58:19;;;;;;;12.52;6.53;;;;;;;15.94;71.75;101895.59;5096428;28;20040;-64
2022/10/29 04:00:55;;;;;;;16.38;6.40;;;;;;;15.92;71.68;101893.13;5085123;28;20082;-64
2022/10/29 04:03:22;;;;;;;10.50;5.80;;;;;;;15.93;71.94;101893.94;5091225;28;20044;-65
2022/10/29 04:05:50;;;;;;;11.27;5.70;;;;;;;15.91;71.89;101893.34;5099775;28;20056;-65
2022/10/29 04:08:18;;;;;;;10.68;5.80;;;;;;;15.91;71.91;101906.91;5094218;28;20055;-64
2022/10/29 04:10:47;;;;;;;14.75;6.20;;;;;;;15.90;72.03;101900.66;5090679;28;20059;-64
2022/10/29 04:13:15;;;;;;;13.95;6.72;;;;;;;15.89;71.86;101904.44;5096643;28;20044;-64
2022/10/29 04:15:43;;;;;;;11.75;6.53;;;;;;;15.89;72.02;101898.19;5095852;28;20047;-66
2022/10/29 04:18:13;;;;;;;11.00;5.75;;;;;;;15.87;71.93;101892.16;5090378;28;20064;-65
2022/10/29 04:20:41;;;;;;;16.27;5.82;;;;;;;15.88;72.03;101896.53;5096236;28;20062;-66
2022/10/29 04:23:29;;;;;;;12.32;5.38;;;;;;;15.87;72.04;101894.88;5102417;28;20086;-65
2022/10/29 04:26:17;;;;;;;14.43;5.85;;;;;;;15.85;71.96;101883.44;5088662;28;20051;-65
2022/10/29 04:29:05;;;;;;;12.35;6.25;;;;;;;15.85;71.96;101889.69;5092592;28;20059;-65
2022/10/29 04:31:33;;;;;;;12.68;5.70;;;;;;;15.86;71.95;101895.94;5092431;28;20039;-65
2022/10/29 04:34:02;;;;;;;15.20;6.20;;;;;;;15.84;71.90;101895.34;5094799;28;20055;-65
2022/10/29 04:36:29;;;;;;;11.32;6.43;;;;;;;15.84;71.96;101885.31;5099615;28;20516;-65
2022/10/29 04:38:57;;;;;;;13.40;6.80;;;;;;;15.84;71.93;101885.31;5096606;28;20059;-65
2022/10/29 04:41:25;;;;;;;9.43;5.90;;;;;;;15.84;71.93;101888.03;5089455;28;20048;-65
2022/10/29 04:43:52;;;;;;;13.18;6.63;;;;;;;15.84;71.85;101892.63;5099351;28;20158;-65
2022/10/29 04:46:20;;;;;;;15.18;6.03;;;;;;;15.83;71.96;101888.25;5096740;28;20052;-65
2022/10/29 04:48:48;;;;;;;13.52;5.30;;;;;;;15.83;71.91;101899.09;5093366;28;20048;-65
2022/10/29 04:51:21;;;;;;;15.13;5.93;;;;;;;15.82;71.86;101894.75;5095100;28;20058;-65
2022/10/29 04:53:49;;;;;;;15.13;5.80;;;;;;;15.82;72.00;101890.16;5089223;28;20135;-65
2022/10/29 04:56:17;;;;;;;13.02;5.07;;;;;;;15.81;71.87;101888.50;5089545;28;20049;-65
2022/10/29 04:58:44;;;;;;;10.65;5.72;;;;;;;15.78;72.02;101880.81;5101678;28;20048;-65
2022/10/29 05:01:12;;;;;;;13.70;5.85;;;;;;;15.80;71.97;101880.59;5093351;28;20048;-65
2022/10/29 05:03:40;;;;;;;11.93;5.95;;;;;;;15.79;72.02;101887.91;5087834;28;20040;-65
2022/10/29 05:06:08;;;;;;;10.70;5.70;;;;;;;15.78;71.92;101877.28;5093956;28;20054;-65
2022/10/29 05:08:37;;;;;;;13.85;6.25;;;;;;;15.79;71.97;101862.69;5099650;28;20041;-65
2022/10/29 05:11:05;;;;;;;14.27;6.25;;;;;;;15.78;72.01;101872.69;5088026;28;20056;-65
2022/10/29 05:13:34;;;;;;;10.52;5.53;;;;;;;15.76;71.81;101866.69;5089998;28;20066;-65
2022/10/29 05:16:02;;;;;;;10.38;5.68;;;;;;;15.76;72.03;101866.69;5095150;28;20044;-65
2022/10/29 05:18:29;;;;;;;13.55;5.90;;;;;;;15.77;72.03;101865.63;5095888;28;20053;-64
2022/10/29 05:20:57;;;;;;;11.30;5.75;;;;;;;15.76;72.11;101871.28;5090831;28;20241;-64
2022/10/29 05:23:25;;;;;;;13.77;5.43;;;;;;;15.76;72.10;101866.69;5089059;28;20052;-64
2022/10/29 05:25:55;;;;;;;10.02;6.30;;;;;;;15.75;72.09;101858.78;5092654;28;20049;-65
2022/10/29 05:28:23;;;;;;;9.38;4.85;;;;;;;15.75;72.07;101861.50;5090272;28;20040;-64
2022/10/29 05:30:52;;;;;;;11.70;5.50;;;;;;;15.70;72.12;101851.34;5092165;28;20074;-65
2022/10/29 05:33:23;;;;;;;14.38;5.68;;;;;;;15.73;72.07;101864.44;5098698;28;20050;-65
2022/10/29 05:35:51;;;;;;;10.35;5.38;;;;;;;15.70;71.93;101856.75;4740372;28;10000663;-64
2022/10/29 05:38:19;;;;;;;10.45;5.75;;;;;;;15.72;71.99;101849.22;5094245;28;20052;-65
2022/10/29 05:40:47;;;;;;;7.18;4.88;;;;;;;15.72;72.14;101849.22;5088970;28;20071;-64
2022/10/29 05:43:17;;;;;;;11.60;6.57;;;;;;;15.71;72.13;101849.47;5083145;28;20063;-64
2022/10/29 05:45:45;;;;;;;11.43;5.47;;;;;;;15.71;72.02;101842.16;5095770;28;20056;-63
2022/10/29 05:48:13;;;;;;;12.85;5.78;;;;;;;15.71;72.19;101841.31;5090869;28;20059;-63
2022/10/29 05:50:41;;;;;;;10.32;5.78;;;;;;;15.71;72.24;101844.03;5094131;28;20131;-66
2022/10/29 05:53:11;;;;;;;11.85;5.25;;;;;;;15.70;72.08;101836.97;5093043;28;20056;-65
2022/10/29 05:55:39;;;;;;;11.70;6.28;;;;;;;15.69;72.11;101836.13;5084837;28;20058;-66
2022/10/29 05:58:10;;;;;;;10.55;5.55;;;;;;;15.68;71.98;101828.25;5089909;28;20364;-66
2022/10/29 06:00:41;;;;;;;13.90;5.90;;;;;;;15.67;72.11;101827.41;5085387;28;20054;-64
2022/10/29 06:03:13;;;;;;;10.68;5.22;;;;;;;15.68;72.29;101820.09;5088336;28;20047;-65
2022/10/29 06:05:41;;;;;;;9.38;5.60;;;;;;;15.67;72.19;101829.28;5092224;28;20058;-64
2022/10/29 06:08:09;;;;;;;11.25;5.05;;;;;;;15.67;72.43;101834.72;5093769;28;20444;-65
2022/10/29 06:10:37;;;;;;;13.02;5.90;;;;;;;15.66;72.05;101842.03;5091736;28;20056;-65
2022/10/29 06:13:10;;;;;;;13.73;5.15;;;;;;;15.66;72.24;101849.31;5086984;28;20059;-66
2022/10/29 06:15:39;;;;;;;12.40;5.47;;;;;;;15.65;72.24;101843.06;5088971;28;20037;-65
2022/10/29 06:18:07;;;;;;;12.00;5.93;;;;;;;15.65;72.21;101844.97;5084805;28;20059;-66
2022/10/29 06:20:36;;;;;;;8.57;4.57;;;;;;;15.66;72.31;101852.03;5093176;28;20052;-66
2022/10/29 06:23:05;;;;;;;10.15;5.53;;;;;;;15.64;72.32;101833.28;5091014;28;20068;-65
2022/10/29 06:25:32;;;;;;;9.90;4.82;;;;;;;15.65;72.11;101855.78;5084981;28;20048;-65
2022/10/29 06:28:02;;;;;;;9.98;5.22;;;;;;;15.65;72.39;101858.50;5091274;28;20054;-65
2022/10/29 06:30:31;;;;;;;12.45;5.70;;;;;;;15.65;72.18;101862.03;5092386;28;20087;-65
2022/10/29 06:33:00;;;;;;;9.70;5.72;;;;;;;15.65;72.30;101853.09;5090635;28;20056;-65
2022/10/29 06:35:28;;;;;;;18.10;5.38;;;;;;;15.64;72.17;101849.56;5089498;28;20165;-66
2022/10/29 06:37:57;;;;;;;11.30;5.68;;;;;;;15.64;72.30;101846.84;5091257;28;20052;-65
2022/10/29 06:40:25;;;;;;;11.73;5.15;;;;;;;15.63;72.40;101851.44;5084976;28;20045;-64
2022/10/29 06:42:59;;;;;;;11.38;5.55;;;;;;;15.63;72.44;101850.59;5090376;28;20109;-66
2022/10/29 06:45:27;;;;;;;14.57;5.90;;;;;;;15.64;72.41;101854.97;5093882;28;20049;-65
2022/10/29 06:47:55;;;;;;;11.35;5.88;;;;;;;15.63;72.37;101850.59;5084026;28;20056;-64
2022/10/29 06:50:25;;;;;;;12.35;6.00;;;;;;;15.63;72.73;101861.44;5087578;28;20086;-64
2022/10/29 06:52:57;;;;;;;14.68;6.05;;;;;;;15.63;72.52;101866.88;5087492;28;20063;-67
2022/10/29 06:55:26;;;;;;;14.38;6.65;;;;;;;15.62;72.40;101874.19;5088063;28;20049;-67
2022/10/29 06:57:59;;;;;;;10.90;4.85;;;;;;;15.62;72.48;101874.19;5094733;28;20058;-66
2022/10/29 07:00:27;;;;;;;15.55;6.30;;;;;;;15.62;72.28;101878.75;5087328;28;20067;-66
2022/10/29 07:02:55;;;;;;;13.10;5.95;;;;;;;15.60;72.19;101873.56;5084275;28;20040;-65
2022/10/29 07:05:26;;;;;;;13.50;6.43;;;;;;;15.61;72.52;101872.53;5086389;28;20075;-65
2022/10/29 07:07:58;;;;;;;11.38;5.40;;;;;;;15.62;72.41;101870.63;5088579;28;20075;-64
2022/10/29 07:10:28;;;;;;;13.48;5.60;;;;;;;15.62;72.47;101860.63;5088891;28;20080;-65
2022/10/29 07:12:56;;;;;;;11.65;5.45;;;;;;;15.61;72.53;101858.97;5083661;28;20316;-66
2022/10/29 07:15:24;;;;;;;14.85;6.18;;;;;;;15.61;72.61;101850.84;5089276;28;20044;-65
2022/10/29 07:17:55;;;;;;;14.15;5.72;;;;;;;15.60;72.55;101849.19;5082019;28;20059;-65
2022/10/29 07:20:26;;;;;;;10.57;5.32;;;;;;;15.60;72.41;101843.78;5080958;28;20052;-65
2022/10/29 07:22:54;;;;;;;14.52;6.00;;;;;;;15.60;72.43;101838.34;5089107;28;20562;-66
2022/10/29 07:25:21;;;;;;;8.57;4.55;;;;;;;15.59;72.41;101844.03;5083367;28;20048;-65
2022/10/29 07:27:49;;;;;;;12.18;5.22;;;;;;;15.59;72.76;101839.44;5085449;28;20052;-64
2022/10/29 07:30:17;;;;;;;12.60;5.25;;;;;;;15.58;72.65;101832.38;5090902;28;20105;-65
2022/10/29 07:32:45;;;;;;;12.02;5.55;;;;;;;15.59;72.67;101825.06;5087262;28;20508;-65
2022/10/29 07:35:13;;;;;;;14.82;5.60;;;;;;;15.59;72.37;101833.19;5081441;28;20053;-65
2022/10/29 07:37:42;;;;;;;12.27;6.10;;;;;;;15.59;72.45;101830.47;5085355;28;20049;-65
2022/10/29 07:40:10;;;;;;;13.43;6.15;;;;;;;15.58;72.61;101837.78;5100453;28;20062;-65
2022/10/29 07:42:38;;;;;;;11.10;5.72;;;;;;;15.58;72.55;101832.38;5080720;28;20517;-65
2022/10/29 07:45:07;;;;;;;12.63;5.25;;;;;;;15.58;72.50;101820.69;5086691;28;20505;-65
2022/10/29 07:47:35;;;;;;;12.60;4.90;;;;;;;15.58;72.51;101826.13;5087716;28;20040;-65
2022/10/29 07:50:03;;;;;;;14.43;5.28;;;;;;;15.58;72.67;101828.81;5092511;28;20053;-65
2022/10/29 07:52:31;;;;;;;14.02;4.93;;;;;;;15.58;72.38;101828.81;5089109;28;20052;-66
2022/10/29 07:55:01;;;;;;;9.73;5.13;;;;;;;15.57;72.50;101830.72;5086768;28;20054;-64
2022/10/29 07:57:29;;;;;;;10.63;5.18;;;;;;;15.58;72.37;101837.78;5088043;28;20056;-64
2022/10/29 07:59:57;;;;;;;9.63;5.20;;;;;;;15.58;72.53;101836.97;5079164;28;20046;-65
2022/10/29 08:02:24;;;;;;;12.90;5.63;;;;;;;15.58;72.59;101818.81;5091126;28;20044;-66
2022/10/29 08:04:52;;;;;;;9.18;4.90;;;;;;;15.59;72.73;101817.75;5088245;28;20063;-62
2022/10/29 08:07:20;;;;;;;10.73;5.25;;;;;;;15.59;72.48;101823.19;5086778;28;20048;-65
2022/10/29 08:09:47;;;;;;;9.68;4.95;;;;;;;15.59;72.51;101822.34;5090973;28;20054;-64
2022/10/29 08:12:16;;;;;;;13.45;5.95;;;;;;;15.60;72.48;101822.09;5091070;28;20054;-63
2022/10/29 08:14:44;;;;;;;8.77;5.22;;;;;;;15.61;72.56;101817.50;5085852;28;20505;-64
2022/10/29 08:17:12;;;;;;;10.02;5.03;;;;;;;15.62;72.41;101819.97;5091919;28;20044;-65
2022/10/29 08:19:39;;;;;;;14.82;5.63;;;;;;;15.63;72.48;101831.63;5090014;28;20052;-64
2022/10/29 08:22:07;;;;;;;9.02;5.07;;;;;;;15.62;72.62;101830.81;5089031;28;20061;-65
2022/10/29 08:24:35;;;;;;;12.45;4.40;;;;;;;15.63;72.47;101824.34;5094610;28;20171;-64
2022/10/29 08:27:02;;;;;;;8.10;4.30;;;;;;;15.65;72.56;101826.81;5087473;28;20045;-64
2022/10/29 08:29:31;;;;;;;10.60;5.35;;;;;;;15.65;72.57;101823.28;5091973;28;20063;-65
2022/10/29 08:31:59;;;;;;;13.27;4.90;;;;;;;15.65;72.51;101818.69;5093581;28;20154;-65
2022/10/29 08:34:27;;;;;;;9.50;4.50;;;;;;;15.66;72.49;101825.75;5092083;28;20041;-64
2022/10/29 08:36:54;;;;;;;10.40;4.90;;;;;;;15.68;72.49;101814.69;5086900;28;20056;-65
2022/10/29 08:39:22;;;;;;;10.45;4.60;;;;;;;15.69;72.58;101824.47;5086407;28;20103;-65
2022/10/29 08:42:00;;;;;;;8.65;5.20;;;;;;;15.70;72.47;101818.81;5086966;28;20052;-64
2022/10/29 08:44:49;;;;;;;8.02;4.25;;;;;;;15.70;72.56;101823.41;5087530;28;20048;-64
2022/10/29 08:47:20;;;;;;;7.57;4.07;;;;;;;15.71;72.51;101820.47;5090336;28;20044;-65
2022/10/29 08:49:55;;;;;;;10.60;4.80;;;;;;;15.72;72.65;101818.59;5094802;28;20068;-66
2022/10/29 08:52:27;;;;;;;10.35;4.53;;;;;;;15.72;72.51;101816.69;5094046;28;20051;-65
2022/10/29 08:55:05;;;;;;;10.95;4.13;;;;;;;15.74;72.68;101809.16;5095632;28;20044;-65
2022/10/29 08:57:37;;;;;;;10.98;4.45;;;;;;;15.66;72.81;101797.84;5096233;28;20047;-64
2022/10/29 09:00:14;;;;;;;12.10;4.80;;;;;;;15.75;72.77;101812.69;5089874;28;20036;-64
2022/10/29 09:02:41;;;;;;;9.68;4.60;;;;;;;15.76;72.93;101808.94;5090462;28;20045;-62
2022/10/29 09:05:14;;;;;;;12.23;5.25;;;;;;;15.77;72.97;101807.88;5088839;28;20044;-66
2022/10/29 09:08:10;;;;;;;21.40;5.50;;;;;;;15.83;74.62;101810.47;5084641;28;20073;-65
2022/10/29 09:10:42;;;;;;;13.85;6.22;;;;;;;15.86;75.03;101801.88;5088831;28;20040;-64
2022/10/29 09:13:27;;;;;;;10.55;5.75;;;;;;;15.89;74.39;101804.13;5095725;28;20058;-64
2022/10/29 09:16:10;;;;;;;9.23;4.80;;;;;;;15.91;74.13;101807.44;5089825;28;20048;-64
2022/10/29 09:18:50;;;;;;;9.80;4.40;;;;;;;15.93;73.89;101812.63;5098192;28;20381;-64
2022/10/29 09:21:29;;;;;;;10.63;5.35;;;;;;;15.93;73.73;101816.16;5095557;28;20059;-64
2022/10/29 09:24:14;;;;;;;9.23;4.60;;;;;;;15.95;73.83;101815.91;5100222;28;20045;-64
2022/10/29 09:26:57;;;;;;;7.72;4.28;;;;;;;15.96;73.61;101806.72;5090763;28;20052;-66
2022/10/29 09:29:35;;;;;;;12.43;5.07;;;;;;;15.97;73.73;101800.25;5090598;28;20040;-64
2022/10/29 09:32:08;;;;;;;13.00;4.97;;;;;;;15.98;73.69;101788.34;5100324;28;20150;-65
2022/10/29 09:34:42;;;;;;;12.45;5.15;;;;;;;16.00;73.85;101799.78;5101212;28;20051;-63
2022/10/29 09:37:15;;;;;;;18.15;5.97;;;;;;;16.01;73.89;101793.28;5101088;28;20048;-64
2022/10/29 09:39:45;;;;;;;11.88;5.90;;;;;;;16.03;73.93;101793.06;5093074;28;20045;-68
2022/10/29 09:42:18;;;;;;;16.08;6.18;;;;;;;16.04;73.90;101794.72;5096132;28;20051;-63
2022/10/29 09:44:52;;;;;;;10.73;5.57;;;;;;;16.05;74.16;101794.47;5087634;28;20135;-63
2022/10/29 09:47:35;;;;;;;23.67;5.50;;;;;;;16.06;74.07;101798.84;5099069;28;20285;-63
2022/10/29 09:50:14;;;;;;;13.73;5.70;;;;;;;16.12;74.22;101787.06;5090422;28;20067;-64
2022/10/29 09:52:44;;;;;;;12.65;5.15;;;;;;;16.16;74.06;101784.69;5098190;28;20052;-64
2022/10/29 09:55:21;;;;;;;15.55;5.47;;;;;;;16.21;74.14;101782.09;5095924;28;20041;-64
2022/10/29 09:57:49;;;;;;;8.32;4.18;;;;;;;16.24;74.03;101771.59;5091729;28;20048;-62
2022/10/29 10:00:23;;;;;;;14.88;6.15;;;;;;;16.28;74.20;101769.25;5096669;28;20049;-62
2022/10/29 10:02:59;;;;;;;16.15;5.05;;;;;;;16.30;73.84;101761.69;4735675;28;10000400;-63
2022/10/29 10:05:30;;;;;;;11.95;5.22;;;;;;;16.33;73.91;101766.63;5089932;28;20059;-62
2022/10/29 10:08:10;;;;;;;14.15;5.85;;;;;;;16.33;73.79;101774.78;5090729;28;20044;-63
2022/10/29 10:10:51;;;;;;;13.20;4.70;;;;;;;16.37;73.92;101765.09;5082979;28;20067;-62
2022/10/29 10:13:20;;;;;;;11.75;5.05;;;;;;;16.38;74.05;101755.06;5083730;28;20058;-62
2022/10/29 10:15:56;;;;;;;12.38;5.13;;;;;;;16.49;74.59;101754.22;5089648;28;20040;-62
2022/10/29 10:18:27;;;;;;;10.75;4.82;;;;;;;16.54;74.00;101751.63;5093485;28;20049;-62
2022/10/29 10:21:04;;;;;;;14.15;4.32;;;;;;;16.58;73.61;101752.78;5089821;28;20060;-62
2022/10/29 10:23:46;;;;;;;12.40;5.00;;;;;;;16.65;74.70;101758.13;5100415;28;20083;-62
2022/10/29 10:26:32;;;;;;;12.10;4.43;;;;;;;16.81;74.42;101763.63;5090348;28;20429;-63
2022/10/29 10:29:14;;;;;;;16.33;5.72;;;;;;;17.01;73.82;101765.09;5091651;28;20053;-63
2022/10/29 10:31:43;;;;;;;11.40;4.30;;;;;;;16.90;74.27;101764.06;5093149;28;20048;-63
2022/10/29 10:34:18;;;;;;;11.93;4.82;;;;;;;16.81;74.25;101760.09;5084764;28;20136;-63
2022/10/29 10:36:50;;;;;;;12.25;4.15;;;;;;;16.75;74.16;101758.31;5094610;28;20425;-63
2022/10/29 10:39:26;;;;;;;11.75;5.03;;;;;;;16.92;75.05;101759.22;5085754;28;20068;-65
2022/10/29 10:41:55;;;;;;;9.00;3.58;;;;;;;16.84;74.31;101755.00;5086111;28;20044;-65
2022/10/29 10:44:24;;;;;;;14.02;5.07;;;;;;;16.91;75.32;101738.56;5090875;28;20499;-65
2022/10/29 10:46:54;;;;;;;11.38;4.45;;;;;;;17.03;74.71;101758.34;5092608;28;20055;-66
2022/10/29 10:49:31;;;;;;;15.10;4.15;;;;;;;16.99;74.75;101745.50;5091613;28;20063;-66
2022/10/29 10:52:02;;;;;;;9.93;3.97;;;;;;;17.14;74.94;101734.91;5095525;28;20060;-67
2022/10/29 10:54:35;;;;;;;10.88;4.75;;;;;;;17.21;74.24;101730.16;5092902;28;20051;-65
2022/10/29 10:57:05;;;;;;;13.27;4.88;;;;;;;17.16;75.09;101730.06;5097871;28;20102;-65
2022/10/29 10:59:47;;;;;;;10.63;4.82;;;;;;;17.18;75.19;101730.66;5091241;28;20554;-65
2022/10/29 11:02:24;;;;;;;19.70;4.82;;;;;;;17.18;75.41;101730.66;5089401;28;20040;-67
2022/10/29 11:04:59;;;;;;;13.82;4.75;;;;;;;17.15;75.10;101726.53;5091908;28;20047;-66
2022/10/29 11:07:36;;;;;;;10.75;4.50;;;;;;;17.24;75.47;101735.09;5093535;28;20048;-66
2022/10/29 11:10:10;;;;;;;9.35;3.75;;;;;;;17.18;75.10;101734.19;5094963;28;20044;-65
2022/10/29 11:12:44;;;;;;;11.00;4.43;;;;;;;17.19;75.27;101730.41;5090162;28;20056;-65
2022/10/29 11:15:17;;;;;;;12.55;5.13;;;;;;;17.17;75.20;101732.53;5099210;28;20056;-64
2022/10/29 11:17:50;;;;;;;13.00;4.30;;;;;;;17.27;75.82;101728.34;5088398;28;20052;-64
2022/10/29 11:20:27;;;;;;;10.18;4.10;;;;;;;17.41;75.75;101726.94;5093155;28;20052;-64
2022/10/29 11:23:04;;;;;;;14.95;4.22;;;;;;;17.49;75.61;101724.66;5084021;28;20535;-65
2022/10/29 11:25:39;;;;;;;9.25;4.38;;;;;;;17.51;75.37;101722.50;5094384;28;20052;-66
2022/10/29 11:28:18;;;;;;;7.82;4.07;;;;;;;17.47;75.73;101723.25;5095085;28;20067;-65
2022/10/29 11:30:51;;;;;;;9.18;4.43;;;;;;;17.57;75.97;101717.97;5095972;28;20040;-64
2022/10/29 11:33:27;;;;;;;8.25;4.50;;;;;;;17.64;75.83;101718.63;5098588;28;20044;-66
2022/10/29 11:36:01;;;;;;;9.93;4.15;;;;;;;17.74;75.55;101713.38;5094564;28;20048;-65
2022/10/29 11:38:38;;;;;;;8.40;4.15;;;;;;;17.71;75.48;101716.59;5097802;28;20044;-66